Time,TemperatureF,DewpointF,PressureIn,WindDirection,WindDirectionDegrees,WindSpeedMPH,WindSpeedGustMPH,Humidity,HourlyPrecipIn,Conditions,Clouds,dailyrainin,SolarRadiationWatts/m^2,SoftwareType,DateUTC
2013-05-23 00:00:00,65.5,62.5,29.78,West,262,10.0,14.0,90,0.00,,---,0.41,0.00,VWS V14.00,2013-05-23 04:00:00,
2013-05-23 00:01:00,64.9,62.2,29.76,West,269,0.0,5.0,91,0.00,,---,0.42,0.00,VWS V14.00,2013-05-23 04:01:00,
2013-05-23 00:02:00,64.9,62.2,29.76,West,269,0.0,0.0,91,0.00,,---,0.00,0.00,VWS V14.00,2013-05-23 04:02:00,
2013-05-23 00:07:00,64.8,62.1,29.76,West,269,0.0,0.0,91,0.00,,---,0.00,0.00,VWS V14.00,2013-05-23 04:07:00,
2013-05-23 00:12:00,64.7,62.0,29.76,West,269,0.0,0.0,91,0.00,,---,0.00,0.00,VWS V14.00,2013-05-23 04:12:00,
2013-05-23 00:17:00,64.6,61.9,29.76,West,269,0.0,0.0,91,0.00,,---,0.00,0.00,VWS V14.00,2013-05-23 04:17:00,
2013-05-23 00:22:00,64.5,62.1,29.77,West,269,1.0,4.0,92,0.00,,---,0.00,0.00,VWS V14.00,2013-05-23 04:22:00,
2013-05-23 00:27:00,64.5,62.1,29.77,SW,234,0.0,4.0,92,0.00,,---,0.00,0.00,VWS V14.00,2013-05-23 04:27:00,
2013-05-23 00:30:00,66.1,62.5,29.77,WSW,250,1.0,15.0,88,0.00,,---,0.41,0.00,VWS V14.00,2013-05-23 04:30:00,
2013-05-23 00:32:00,64.5,62.1,29.78,WSW,242,0.0,1.0,92,0.00,,---,0.01,0.00,VWS V14.00,2013-05-23 04:32:00,
2013-05-23 00:37:00,64.5,62.1,29.78,West,275,4.0,6.0,92,0.14,,---,0.02,0.00,VWS V14.00,2013-05-23 04:37:00,
2013-05-23 00:42:00,64.5,62.4,29.78,West,264,2.0,6.0,93,0.08,,---,0.02,0.00,VWS V14.00,2013-05-23 04:42:00,
2013-05-23 00:47:00,64.5,62.4,29.79,West,275,4.0,7.0,93,0.05,,---,0.02,0.00,VWS V14.00,2013-05-23 04:47:00,
2013-05-23 00:52:00,64.5,62.4,29.79,WSW,244,0.0,7.0,93,0.00,,---,0.02,0.00,VWS V14.00,2013-05-23 04:52:00,
2013-05-23 00:57:00,64.5,62.4,29.79,West,262,0.0,8.0,93,0.00,,---,0.02,0.00,VWS V14.00,2013-05-23 04:57:00,
2013-05-23 01:00:00,64.9,62.2,29.76,West,269,0.0,5.0,91,0.00,,---,0.00,0.00,VWS V14.00,2013-05-23 05:00:00,
2013-05-23 01:02:00,64.5,62.4,29.80,SW,221,1.0,1.0,93,0.00,,---,0.02,0.00,VWS V14.00,2013-05-23 05:02:00,
2013-05-23 01:07:00,64.4,62.6,29.82,West,261,3.0,7.0,94,0.00,,---,0.02,0.00,VWS V14.00,2013-05-23 05:07:00,
2013-05-23 01:12:00,64.3,62.5,29.82,WSW,255,2.0,7.0,94,0.94,,---,0.12,0.00,VWS V14.00,2013-05-23 05:12:00,
2013-05-23 01:17:00,64.1,62.6,29.82,WSW,246,2.0,7.0,95,0.44,,---,0.18,0.00,VWS V14.00,2013-05-23 05:17:00,
2013-05-23 01:22:00,64.0,62.5,29.82,SW,231,0.0,8.0,95,0.40,,---,0.22,0.00,VWS V14.00,2013-05-23 05:22:00,
2013-05-23 01:27:00,63.8,62.3,29.81,SW,234,0.0,8.0,95,0.17,,---,0.23,0.00,VWS V14.00,2013-05-23 05:27:00,
2013-05-23 01:30:00,64.5,62.1,29.78,WSW,241,0.0,4.0,92,0.00,,---,0.01,0.00,VWS V14.00,2013-05-23 05:30:00,
2013-05-23 01:32:00,63.6,62.2,29.80,SW,223,0.0,0.0,95,0.14,,---,0.24,0.00,VWS V14.00,2013-05-23 05:32:00,
2013-05-23 01:37:00,63.5,62.0,29.80,SW,222,0.0,1.0,95,0.08,,---,0.25,0.00,VWS V14.00,2013-05-23 05:37:00,
2013-05-23 01:42:00,63.4,62.0,29.80,SW,222,0.0,1.0,95,0.21,,---,0.27,0.00,VWS V14.00,2013-05-23 05:42:00,
2013-05-23 01:47:00,63.3,61.8,29.80,SW,221,0.0,2.0,95,0.24,,---,0.30,0.00,VWS V14.00,2013-05-23 05:47:00,
2013-05-23 01:52:00,63.2,62.0,29.79,SW,221,0.0,2.0,96,0.14,,---,0.30,0.00,VWS V14.00,2013-05-23 05:52:00,
2013-05-23 01:57:00,63.2,62.0,29.79,SW,217,0.0,2.0,96,0.09,,---,0.31,0.00,VWS V14.00,2013-05-23 05:57:00,
2013-05-23 02:00:00,64.5,62.4,29.79,SW,215,0.0,8.0,93,0.00,,---,0.02,0.00,VWS V14.00,2013-05-23 06:00:00,
2013-05-23 02:02:00,63.2,62.0,29.78,ESE,102,0.0,1.0,96,0.07,,---,0.31,0.00,VWS V14.00,2013-05-23 06:02:00,
2013-05-23 02:07:00,63.1,61.9,29.78,ESE,103,0.0,1.0,96,0.07,,---,0.32,0.00,VWS V14.00,2013-05-23 06:07:00,
2013-05-23 02:12:00,63.1,61.9,29.78,ESE,103,0.0,2.0,96,0.06,,---,0.32,0.00,VWS V14.00,2013-05-23 06:12:00,
2013-05-23 02:17:00,63.1,61.9,29.78,ESE,103,0.0,2.0,96,0.04,,---,0.32,0.00,VWS V14.00,2013-05-23 06:17:00,
2013-05-23 02:22:00,63.1,61.9,29.78,ESE,118,0.0,2.0,96,0.00,,---,0.32,0.00,VWS V14.00,2013-05-23 06:22:00,
2013-05-23 02:27:00,63.0,61.8,29.78,ESE,118,0.0,2.0,96,0.00,,---,0.32,0.00,VWS V14.00,2013-05-23 06:27:00,
2013-05-23 02:30:00,63.7,62.2,29.80,SW,222,0.0,8.0,95,0.14,,---,0.24,0.00,VWS V14.00,2013-05-23 06:30:00,
2013-05-23 02:32:00,62.9,61.8,29.78,ESE,118,0.0,0.0,96,0.00,,---,0.32,0.00,VWS V14.00,2013-05-23 06:32:00,
2013-05-23 02:37:00,62.9,61.8,29.78,ESE,118,0.0,0.0,96,0.00,,---,0.32,0.00,VWS V14.00,2013-05-23 06:37:00,
2013-05-23 02:42:00,62.9,61.8,29.78,ESE,118,0.0,1.0,96,0.00,,---,0.32,0.00,VWS V14.00,2013-05-23 06:42:00,
2013-05-23 02:47:00,62.9,62.0,29.78,ESE,118,0.0,1.0,97,0.00,,---,0.32,0.00,VWS V14.00,2013-05-23 06:47:00,
2013-05-23 02:52:00,62.9,62.0,29.78,ESE,108,0.0,4.0,97,0.00,,---,0.32,0.00,VWS V14.00,2013-05-23 06:52:00,
2013-05-23 02:57:00,62.9,62.0,29.78,ESE,111,0.0,4.0,97,0.00,,---,0.32,0.00,VWS V14.00,2013-05-23 06:57:00,
2013-05-23 03:00:00,63.2,62.0,29.78,ESE,102,0.0,4.0,96,0.08,,---,0.31,0.00,VWS V14.00,2013-05-23 07:00:00,
2013-05-23 03:02:00,62.9,62.0,29.78,ESE,111,0.0,0.0,97,0.00,,---,0.32,0.00,VWS V14.00,2013-05-23 07:02:00,
2013-05-23 03:07:00,62.9,62.0,29.77,ESE,111,0.0,1.0,97,0.00,,---,0.32,0.00,VWS V14.00,2013-05-23 07:07:00,
2013-05-23 03:12:00,62.9,62.0,29.77,ESE,111,0.0,1.0,97,0.00,,---,0.32,0.00,VWS V14.00,2013-05-23 07:12:00,
2013-05-23 03:17:00,62.8,61.9,29.77,ESE,111,0.0,1.0,97,0.00,,---,0.32,0.00,VWS V14.00,2013-05-23 07:17:00,
2013-05-23 03:22:00,62.7,61.8,29.77,ESE,111,0.0,1.0,97,0.00,,---,0.32,0.00,VWS V14.00,2013-05-23 07:22:00,
2013-05-23 03:27:00,62.7,61.8,29.77,ESE,111,0.0,1.0,97,0.00,,---,0.32,0.00,VWS V14.00,2013-05-23 07:27:00,
2013-05-23 03:30:00,62.9,61.8,29.78,ESE,118,0.0,2.0,96,0.00,,---,0.32,0.00,VWS V14.00,2013-05-23 07:30:00,
2013-05-23 03:32:00,62.6,61.7,29.77,ESE,111,0.0,0.0,97,0.00,,---,0.32,0.00,VWS V14.00,2013-05-23 07:32:00,
2013-05-23 03:37:00,62.5,61.6,29.77,ESE,111,0.0,0.0,97,0.00,,---,0.32,0.00,VWS V14.00,2013-05-23 07:37:00,
2013-05-23 03:42:00,62.5,61.6,29.76,ESE,119,0.0,2.0,97,0.00,,---,0.32,0.00,VWS V14.00,2013-05-23 07:42:00,
2013-05-23 03:47:00,62.5,61.6,29.76,East,100,0.0,3.0,97,0.00,,---,0.32,0.00,VWS V14.00,2013-05-23 07:47:00,
2013-05-23 03:52:00,62.4,61.5,29.75,SE,136,0.0,4.0,97,0.00,,---,0.32,0.00,VWS V14.00,2013-05-23 07:52:00,
2013-05-23 03:57:00,62.4,61.5,29.76,SE,145,1.0,5.0,97,0.00,,---,0.32,0.00,VWS V14.00,2013-05-23 07:57:00,
2013-05-23 04:00:00,62.9,62.0,29.78,ESE,111,0.0,4.0,97,0.00,,---,0.32,0.00,VWS V14.00,2013-05-23 08:00:00,
2013-05-23 04:02:00,62.4,61.5,29.76,SE,145,0.0,0.0,97,0.00,,---,0.32,0.00,VWS V14.00,2013-05-23 08:02:00,
2013-05-23 04:07:00,62.4,61.2,29.76,SE,145,0.0,0.0,96,0.00,,---,0.32,0.00,VWS V14.00,2013-05-23 08:07:00,
2013-05-23 04:12:00,62.3,61.2,29.76,SE,144,0.0,1.0,96,0.00,,---,0.32,0.00,VWS V14.00,2013-05-23 08:12:00,
2013-05-23 04:17:00,62.2,61.3,29.76,West,262,0.0,2.0,97,0.00,,---,0.32,0.00,VWS V14.00,2013-05-23 08:17:00,
2013-05-23 04:22:00,62.2,61.3,29.76,SE,129,0.0,4.0,97,0.00,,---,0.32,0.00,VWS V14.00,2013-05-23 08:22:00,
2013-05-23 04:27:00,62.2,61.3,29.76,SE,137,0.0,4.0,97,0.00,,---,0.32,0.00,VWS V14.00,2013-05-23 08:27:00,
2013-05-23 04:30:00,62.6,61.7,29.77,ESE,111,0.0,1.0,97,0.00,,---,0.32,0.00,VWS V14.00,2013-05-23 08:30:00,
2013-05-23 04:32:00,62.2,61.3,29.76,SE,144,0.0,2.0,97,0.00,,---,0.32,0.00,VWS V14.00,2013-05-23 08:32:00,
2013-05-23 04:37:00,62.1,61.2,29.77,SE,144,0.0,2.0,97,0.00,,---,0.32,0.00,VWS V14.00,2013-05-23 08:37:00,
2013-05-23 04:42:00,62.1,61.2,29.76,SSE,153,1.0,2.0,97,0.00,,---,0.32,0.00,VWS V14.00,2013-05-23 08:42:00,
2013-05-23 04:47:00,62.1,61.2,29.76,SSE,153,0.0,2.0,97,0.00,,---,0.32,0.00,VWS V14.00,2013-05-23 08:47:00,
2013-05-23 04:52:00,62.1,61.2,29.77,SW,231,0.0,2.0,97,0.00,,---,0.32,0.00,VWS V14.00,2013-05-23 08:52:00,
2013-05-23 04:57:00,62.1,61.2,29.77,SW,231,0.0,2.0,97,0.00,,---,0.32,0.00,VWS V14.00,2013-05-23 08:57:00,
2013-05-23 05:00:00,62.4,61.5,29.76,SE,145,0.0,5.0,97,0.00,,---,0.32,0.00,VWS V14.00,2013-05-23 09:00:00,
2013-05-23 05:02:00,62.1,61.2,29.77,SW,231,0.0,0.0,97,0.00,,---,0.32,0.00,VWS V14.00,2013-05-23 09:02:00,
2013-05-23 05:07:00,62.1,61.2,29.77,SW,231,0.0,0.0,97,0.00,,---,0.32,0.00,VWS V14.00,2013-05-23 09:07:00,
2013-05-23 05:12:00,62.1,61.2,29.77,SW,231,0.0,0.0,97,0.00,,---,0.32,0.00,VWS V14.00,2013-05-23 09:12:00,
2013-05-23 05:17:00,62.2,61.3,29.77,SW,229,0.0,0.0,97,0.00,,---,0.32,0.00,VWS V14.00,2013-05-23 09:17:00,
2013-05-23 05:22:00,62.2,61.3,29.77,SW,229,0.0,1.0,97,0.00,,---,0.32,0.00,VWS V14.00,2013-05-23 09:22:00,
2013-05-23 05:27:00,62.2,61.3,29.77,SW,229,0.0,1.0,97,0.00,,---,0.32,0.00,VWS V14.00,2013-05-23 09:27:00,
2013-05-23 05:30:00,62.2,61.3,29.76,SE,144,1.0,4.0,97,0.00,,---,0.32,0.00,VWS V14.00,2013-05-23 09:30:00,
2013-05-23 05:32:00,62.2,61.3,29.77,SW,229,0.0,0.0,97,0.00,,---,0.32,0.00,VWS V14.00,2013-05-23 09:32:00,
2013-05-23 05:37:00,62.3,61.4,29.77,SW,227,0.0,1.0,97,0.00,,---,0.32,0.00,VWS V14.00,2013-05-23 09:37:00,
2013-05-23 05:42:00,62.3,61.4,29.77,SW,227,0.0,1.0,97,0.00,,---,0.32,0.00,VWS V14.00,2013-05-23 09:42:00,
2013-05-23 05:47:00,62.4,61.5,29.77,SW,227,0.0,1.0,97,0.00,,---,0.32,0.00,VWS V14.00,2013-05-23 09:47:00,
2013-05-23 05:52:00,62.4,61.5,29.77,ESE,122,0.0,4.0,97,0.00,,---,0.32,0.00,VWS V14.00,2013-05-23 09:52:00,
2013-05-23 05:57:00,62.5,61.6,29.77,ESE,106,0.0,4.0,97,0.00,,---,0.32,0.00,VWS V14.00,2013-05-23 09:57:00,
2013-05-23 06:00:00,62.1,61.2,29.77,SW,231,0.0,2.0,97,0.00,,---,0.32,0.00,VWS V14.00,2013-05-23 10:00:00,
2013-05-23 06:02:00,62.6,61.7,29.78,SW,235,0.0,0.0,97,0.00,,---,0.33,0.00,VWS V14.00,2013-05-23 10:02:00,
2013-05-23 06:07:00,62.6,62.3,29.77,WSW,244,0.0,5.0,99,0.00,,---,0.33,0.00,VWS V14.00,2013-05-23 10:07:00,
2013-05-23 06:12:00,62.6,61.7,29.77,South,178,0.0,5.0,97,0.00,,---,0.33,0.00,VWS V14.00,2013-05-23 10:12:00,
2013-05-23 06:17:00,62.7,61.8,29.78,South,176,0.0,5.0,97,0.00,,---,0.33,11.00,VWS V14.00,2013-05-23 10:17:00,
2013-05-23 06:22:00,62.7,61.8,29.78,South,174,0.0,5.0,97,0.00,,---,0.33,14.00,VWS V14.00,2013-05-23 10:22:00,
2013-05-23 06:27:00,62.7,61.8,29.78,South,175,0.0,5.0,97,0.00,,---,0.33,21.00,VWS V14.00,2013-05-23 10:27:00,
2013-05-23 06:30:00,62.3,61.4,29.77,SW,229,0.0,1.0,97,0.00,,---,0.32,0.00,VWS V14.00,2013-05-23 10:30:00,
2013-05-23 06:32:00,62.8,61.9,29.78,South,175,0.0,0.0,97,0.00,,---,0.33,26.00,VWS V14.00,2013-05-23 10:32:00,
2013-05-23 06:37:00,62.9,62.0,29.78,SSW,206,0.0,1.0,97,0.00,,---,0.33,25.00,VWS V14.00,2013-05-23 10:37:00,
2013-05-23 06:42:00,62.9,62.0,29.78,SSW,207,0.0,1.0,97,0.00,,---,0.33,30.00,VWS V14.00,2013-05-23 10:42:00,
2013-05-23 06:47:00,63.0,62.1,29.78,SSW,206,0.0,1.0,97,0.00,,---,0.33,33.00,VWS V14.00,2013-05-23 10:47:00,
2013-05-23 06:52:00,63.1,62.2,29.78,SSW,211,0.0,3.0,97,0.00,,---,0.33,28.00,VWS V14.00,2013-05-23 10:52:00,
2013-05-23 06:57:00,63.1,62.2,29.79,South,182,0.0,3.0,97,0.00,,---,0.33,19.00,VWS V14.00,2013-05-23 10:57:00,
2013-05-23 07:00:00,62.6,61.7,29.78,SW,225,0.0,4.0,97,0.00,,---,0.32,0.00,VWS V14.00,2013-05-23 11:00:00,
2013-05-23 07:02:00,63.2,62.3,29.79,South,181,0.0,0.0,97,0.00,,---,0.33,21.00,VWS V14.00,2013-05-23 11:02:00,
2013-05-23 07:07:00,63.2,62.3,29.79,South,182,0.0,1.0,97,0.00,,---,0.33,26.00,VWS V14.00,2013-05-23 11:07:00,
2013-05-23 07:12:00,63.3,62.4,29.79,South,182,0.0,1.0,97,0.00,,---,0.33,46.00,VWS V14.00,2013-05-23 11:12:00,
2013-05-23 07:17:00,63.3,62.4,29.80,South,182,0.0,1.0,97,0.00,,---,0.33,51.00,VWS V14.00,2013-05-23 11:17:00,
2013-05-23 07:22:00,63.4,62.5,29.79,South,182,0.0,1.0,97,0.00,,---,0.33,74.00,VWS V14.00,2013-05-23 11:22:00,
2013-05-23 07:27:00,63.5,62.6,29.80,South,182,0.0,1.0,97,0.00,,---,0.33,47.00,VWS V14.00,2013-05-23 11:27:00,
2013-05-23 07:30:00,62.8,61.9,29.78,South,175,0.0,5.0,97,0.00,,---,0.33,25.00,VWS V14.00,2013-05-23 11:30:00,
2013-05-23 07:32:00,63.5,62.6,29.80,SSW,195,0.0,0.0,97,0.00,,---,0.33,39.00,VWS V14.00,2013-05-23 11:32:00,
2013-05-23 07:37:00,63.6,62.7,29.80,SW,225,0.0,1.0,97,0.00,,---,0.33,63.00,VWS V14.00,2013-05-23 11:37:00,
2013-05-23 07:42:00,63.7,62.8,29.80,SW,223,0.0,2.0,97,0.00,,---,0.33,74.00,VWS V14.00,2013-05-23 11:42:00,
2013-05-23 07:47:00,63.8,62.9,29.80,SW,221,0.0,2.0,97,0.00,,---,0.33,67.00,VWS V14.00,2013-05-23 11:47:00,
2013-05-23 07:52:00,63.9,63.0,29.80,SW,221,0.0,2.0,97,0.00,,---,0.33,54.00,VWS V14.00,2013-05-23 11:52:00,
2013-05-23 07:57:00,64.0,63.1,29.80,SW,221,0.0,2.0,97,0.00,,---,0.33,97.00,VWS V14.00,2013-05-23 11:57:00,
2013-05-23 08:00:00,63.2,62.3,29.79,South,182,0.0,3.0,97,0.00,,---,0.33,23.00,VWS V14.00,2013-05-23 12:00:00,
2013-05-23 08:02:00,64.0,63.1,29.80,SW,221,0.0,0.0,97,0.00,,---,0.33,88.00,VWS V14.00,2013-05-23 12:02:00,
2013-05-23 08:07:00,64.2,63.3,29.80,South,173,0.0,0.0,97,0.00,,---,0.33,107.00,VWS V14.00,2013-05-23 12:07:00,
2013-05-23 08:12:00,64.3,63.4,29.80,South,173,0.0,1.0,97,0.00,,---,0.33,79.00,VWS V14.00,2013-05-23 12:12:00,
2013-05-23 08:17:00,64.4,63.5,29.80,South,190,0.0,5.0,97,0.00,,---,0.33,102.00,VWS V14.00,2013-05-23 12:17:00,
2013-05-23 08:22:00,64.4,63.5,29.80,South,191,0.0,5.0,97,0.00,,---,0.33,76.00,VWS V14.00,2013-05-23 12:22:00,
2013-05-23 08:27:00,64.6,63.7,29.80,South,191,0.0,5.0,97,0.00,,---,0.33,220.00,VWS V14.00,2013-05-23 12:27:00,
2013-05-23 08:30:00,63.5,62.6,29.80,SSW,194,0.0,2.0,97,0.00,,---,0.33,42.00,VWS V14.00,2013-05-23 12:30:00,
2013-05-23 08:32:00,64.7,63.8,29.80,West,265,0.0,0.0,97,0.00,,---,0.33,142.00,VWS V14.00,2013-05-23 12:32:00,
2013-05-23 08:37:00,64.9,64.0,29.80,West,263,1.0,5.0,97,0.00,,---,0.33,135.00,VWS V14.00,2013-05-23 12:37:00,
2013-05-23 08:42:00,65.0,63.8,29.80,WSW,258,1.0,5.0,96,0.00,,---,0.33,401.00,VWS V14.00,2013-05-23 12:42:00,
2013-05-23 08:47:00,65.4,64.2,29.80,WSW,249,2.0,5.0,96,0.00,,---,0.33,283.00,VWS V14.00,2013-05-23 12:47:00,
2013-05-23 08:52:00,65.8,64.9,29.80,SSE,167,0.0,6.0,97,0.00,,---,0.33,360.00,VWS V14.00,2013-05-23 12:52:00,
2013-05-23 08:57:00,66.2,65.0,29.80,South,175,5.0,6.0,96,0.00,,---,0.33,260.00,VWS V14.00,2013-05-23 12:57:00,
2013-05-23 09:00:00,64.0,63.1,29.80,SW,221,0.0,2.0,97,0.00,,---,0.33,81.00,VWS V14.00,2013-05-23 13:00:00,
2013-05-23 09:02:00,66.2,64.7,29.81,WSW,238,0.0,1.0,95,0.00,,---,0.33,146.00,VWS V14.00,2013-05-23 13:02:00,
2013-05-23 09:07:00,66.4,64.6,29.81,West,281,0.0,9.0,94,0.00,,---,0.33,338.00,VWS V14.00,2013-05-23 13:07:00,
2013-05-23 09:12:00,66.6,64.5,29.80,WNW,292,0.0,9.0,93,0.00,,---,0.33,246.00,VWS V14.00,2013-05-23 13:12:00,
2013-05-23 09:17:00,66.8,64.7,29.80,West,260,1.0,9.0,93,0.00,,---,0.33,552.00,VWS V14.00,2013-05-23 13:17:00,
2013-05-23 09:22:00,67.2,64.8,29.81,ESE,122,4.0,10.0,92,0.00,,---,0.33,671.00,VWS V14.00,2013-05-23 13:22:00,
2013-05-23 09:27:00,67.5,64.5,29.81,West,259,0.0,10.0,90,0.00,,---,0.33,295.00,VWS V14.00,2013-05-23 13:27:00,
2013-05-23 09:30:00,64.7,63.8,29.80,West,265,0.0,5.0,97,0.00,,---,0.33,116.00,VWS V14.00,2013-05-23 13:30:00,
2013-05-23 09:32:00,67.7,64.3,29.81,West,266,1.0,6.0,89,0.00,,---,0.33,199.00,VWS V14.00,2013-05-23 13:32:00,
2013-05-23 09:37:00,67.6,63.9,29.81,SSW,196,2.0,13.0,88,0.00,,---,0.33,288.00,VWS V14.00,2013-05-23 13:37:00,
2013-05-23 09:42:00,67.7,64.3,29.80,SW,225,3.0,13.0,89,0.00,,---,0.33,571.00,VWS V14.00,2013-05-23 13:42:00,
2013-05-23 09:47:00,68.0,65.0,29.81,WSW,254,0.0,13.0,90,0.00,,---,0.33,610.00,VWS V14.00,2013-05-23 13:47:00,
2013-05-23 09:52:00,68.5,64.8,29.81,WSW,245,3.0,13.0,88,0.00,,---,0.33,448.00,VWS V14.00,2013-05-23 13:52:00,
2013-05-23 09:57:00,68.9,64.6,29.81,West,263,7.0,14.0,86,0.00,,---,0.34,346.00,VWS V14.00,2013-05-23 13:57:00,
2013-05-23 10:00:00,66.2,64.7,29.81,WSW,238,0.0,6.0,95,0.00,,---,0.33,139.00,VWS V14.00,2013-05-23 14:00:00,
2013-05-23 10:02:00,69.3,64.9,29.81,SW,225,7.0,7.0,86,0.00,,---,0.34,541.00,VWS V14.00,2013-05-23 14:02:00,
2013-05-23 10:07:00,69.4,64.7,29.80,West,260,2.0,8.0,85,0.00,,---,0.34,339.00,VWS V14.00,2013-05-23 14:07:00,
2013-05-23 10:12:00,69.4,64.7,29.80,SE,144,1.0,8.0,85,0.00,,---,0.34,650.00,VWS V14.00,2013-05-23 14:12:00,
2013-05-23 10:17:00,69.7,65.0,29.80,West,261,2.0,8.0,85,0.00,,---,0.34,707.00,VWS V14.00,2013-05-23 14:17:00,
2013-05-23 10:22:00,69.9,64.2,29.80,WNW,284,5.0,9.0,82,0.00,,---,0.34,318.00,VWS V14.00,2013-05-23 14:22:00,
2013-05-23 10:27:00,69.7,64.3,29.80,SSW,205,2.0,11.0,83,0.00,,---,0.34,596.00,VWS V14.00,2013-05-23 14:27:00,
2013-05-23 10:30:00,67.7,65.0,29.81,West,271,5.0,10.0,91,0.00,,---,0.33,199.00,VWS V14.00,2013-05-23 14:30:00,
2013-05-23 10:32:00,70.0,64.9,29.80,West,270,1.0,8.0,84,0.00,,---,0.34,779.00,VWS V14.00,2013-05-23 14:32:00,
2013-05-23 10:37:00,70.4,65.0,29.80,West,260,7.0,8.0,83,0.00,,---,0.34,786.00,VWS V14.00,2013-05-23 14:37:00,
2013-05-23 10:42:00,70.8,65.4,29.80,WSW,241,4.0,9.0,83,0.00,,---,0.34,838.00,VWS V14.00,2013-05-23 14:42:00,
2013-05-23 10:47:00,71.1,66.0,29.80,West,263,1.0,9.0,84,0.00,,---,0.34,745.00,VWS V14.00,2013-05-23 14:47:00,
2013-05-23 10:52:00,71.6,65.1,29.80,West,273,4.0,9.0,80,0.00,,---,0.34,786.00,VWS V14.00,2013-05-23 14:52:00,
2013-05-23 10:57:00,72.1,66.7,29.80,SSE,157,1.0,9.0,83,0.00,,---,0.34,782.00,VWS V14.00,2013-05-23 14:57:00,
2013-05-23 11:00:00,69.2,65.2,29.80,South,176,4.0,14.0,87,0.00,,---,0.34,788.00,VWS V14.00,2013-05-23 15:00:00,
2013-05-23 11:03:00,72.6,65.3,29.80,SW,220,5.0,5.0,78,0.00,,---,0.34,867.00,VWS V14.00,2013-05-23 15:03:00,
2013-05-23 11:08:00,73.0,66.1,29.80,WSW,256,3.0,7.0,79,0.00,,---,0.34,867.00,VWS V14.00,2013-05-23 15:08:00,
2013-05-23 11:13:00,72.8,65.6,29.80,WSW,246,2.0,10.0,78,0.00,,---,0.34,670.00,VWS V14.00,2013-05-23 15:13:00,
2013-05-23 11:18:00,72.9,64.9,29.80,WSW,250,6.0,10.0,76,0.00,,---,0.34,230.00,VWS V14.00,2013-05-23 15:18:00,
2013-05-23 11:23:00,72.8,65.6,29.80,WSW,249,0.0,11.0,78,0.00,,---,0.34,1102.00,VWS V14.00,2013-05-23 15:23:00,
2013-05-23 11:28:00,73.4,66.1,29.80,WSW,252,4.0,11.0,78,0.00,,---,0.34,1121.00,VWS V14.00,2013-05-23 15:28:00,
2013-05-23 11:30:00,69.9,64.8,29.80,SE,146,7.0,11.0,84,0.00,,---,0.34,779.00,VWS V14.00,2013-05-23 15:30:00,
2013-05-23 11:33:00,73.9,67.0,29.79,SSW,207,0.0,4.0,79,0.00,,---,0.34,1030.00,VWS V14.00,2013-05-23 15:33:00,
2013-05-23 11:38:00,74.2,65.8,29.79,SW,227,2.0,7.0,75,0.00,,---,0.34,364.00,VWS V14.00,2013-05-23 15:38:00,
2013-05-23 11:43:00,74.0,65.6,29.79,ESE,110,2.0,7.0,75,0.00,,---,0.34,281.00,VWS V14.00,2013-05-23 15:43:00,
2013-05-23 11:48:00,73.8,64.2,29.80,West,271,4.0,9.0,72,0.00,,---,0.34,295.00,VWS V14.00,2013-05-23 15:48:00,
2013-05-23 11:53:00,73.4,63.8,29.80,WSW,237,2.0,11.0,72,0.00,,---,0.34,357.00,VWS V14.00,2013-05-23 15:53:00,
2013-05-23 11:58:00,73.7,65.7,29.80,West,260,6.0,11.0,76,0.00,,---,0.34,1076.00,VWS V14.00,2013-05-23 15:58:00,
2013-05-23 12:00:00,72.5,65.6,29.80,SE,139,4.0,9.0,79,0.00,,---,0.34,900.00,VWS V14.00,2013-05-23 16:00:00,
2013-05-23 12:03:00,73.5,64.3,29.79,West,259,2.0,3.0,73,0.00,,---,0.34,204.00,VWS V14.00,2013-05-23 16:03:00,
2013-05-23 12:08:00,73.8,67.2,29.79,WSW,258,0.0,6.0,80,0.00,,---,0.34,1018.00,VWS V14.00,2013-05-23 16:08:00,
2013-05-23 12:13:00,74.2,65.0,29.79,WSW,244,2.0,8.0,73,0.00,,---,0.34,338.00,VWS V14.00,2013-05-23 16:13:00,
2013-05-23 12:18:00,74.3,65.1,29.79,SSW,202,1.0,12.0,73,0.00,,---,0.34,1000.00,VWS V14.00,2013-05-23 16:18:00,
2013-05-23 12:23:00,74.7,65.5,29.79,West,269,7.0,13.0,73,0.00,,---,0.34,279.00,VWS V14.00,2013-05-23 16:23:00,
2013-05-23 12:28:00,74.7,63.9,29.79,West,281,4.0,13.0,69,0.00,,---,0.34,1060.00,VWS V14.00,2013-05-23 16:28:00,
2013-05-23 12:30:00,73.8,65.8,29.79,WSW,247,2.0,11.0,76,0.00,,---,0.34,1121.00,VWS V14.00,2013-05-23 16:30:00,
2013-05-23 12:33:00,75.2,66.0,29.78,SW,234,2.0,4.0,73,0.00,,---,0.34,1148.00,VWS V14.00,2013-05-23 16:33:00,
2013-05-23 12:38:00,75.8,66.9,29.78,SW,219,4.0,5.0,74,0.00,,---,0.34,483.00,VWS V14.00,2013-05-23 16:38:00,
2013-05-23 12:43:00,75.8,63.6,29.78,SE,142,1.0,11.0,66,0.00,,---,0.34,413.00,VWS V14.00,2013-05-23 16:43:00,
2013-05-23 12:48:00,75.4,65.3,29.78,WSW,250,1.0,11.0,71,0.00,,---,0.34,302.00,VWS V14.00,2013-05-23 16:48:00,
2013-05-23 12:53:00,75.2,63.9,29.78,West,271,5.0,14.0,68,0.00,,---,0.34,1093.00,VWS V14.00,2013-05-23 16:53:00,
2013-05-23 12:58:00,74.9,63.6,29.77,West,271,7.0,14.0,68,0.00,,---,0.34,1157.00,VWS V14.00,2013-05-23 16:58:00,
2013-05-23 13:00:00,73.6,63.6,29.79,WSW,244,2.0,11.0,71,0.00,,---,0.34,230.00,VWS V14.00,2013-05-23 17:00:00,
2013-05-23 13:03:00,75.3,62.7,29.77,SSE,148,0.0,11.0,65,0.00,,---,0.34,221.00,VWS V14.00,2013-05-23 17:03:00,
2013-05-23 13:08:00,75.0,63.7,29.77,SW,222,0.0,11.0,68,0.00,,---,0.34,206.00,VWS V14.00,2013-05-23 17:08:00,
2013-05-23 13:13:00,74.6,64.2,29.76,WSW,239,0.0,11.0,70,0.00,,---,0.34,332.00,VWS V14.00,2013-05-23 17:13:00,
2013-05-23 13:18:00,74.7,64.7,29.76,SW,222,0.0,11.0,71,0.00,,---,0.34,332.00,VWS V14.00,2013-05-23 17:18:00,
2013-05-23 13:23:00,75.2,65.6,29.75,WSW,252,1.0,11.0,72,0.00,,---,0.34,1129.00,VWS V14.00,2013-05-23 17:23:00,
2013-05-23 13:28:00,75.8,65.3,29.75,West,268,8.0,11.0,70,0.00,,---,0.34,1088.00,VWS V14.00,2013-05-23 17:28:00,
2013-05-23 13:30:00,75.1,66.2,29.78,WSW,252,3.0,13.0,74,0.00,,---,0.34,1097.00,VWS V14.00,2013-05-23 17:30:00,
2013-05-23 13:33:00,76.2,64.4,29.75,ESE,103,2.0,9.0,67,0.00,,---,0.34,1023.00,VWS V14.00,2013-05-23 17:33:00,
2013-05-23 13:38:00,76.5,64.7,29.75,WSW,248,0.0,9.0,67,0.00,,---,0.34,1157.00,VWS V14.00,2013-05-23 17:38:00,
2013-05-23 13:43:00,76.8,62.8,29.75,South,189,2.0,11.0,62,0.00,,---,0.34,360.00,VWS V14.00,2013-05-23 17:43:00,
2013-05-23 13:48:00,76.7,62.7,29.75,SE,144,0.0,11.0,62,0.00,,---,0.34,1136.00,VWS V14.00,2013-05-23 17:48:00,
2013-05-23 13:53:00,76.3,64.1,29.75,South,169,0.0,11.0,66,0.00,,---,0.34,352.00,VWS V14.00,2013-05-23 17:53:00,
2013-05-23 13:58:00,75.9,63.7,29.74,SW,221,0.0,11.0,66,0.00,,---,0.34,329.00,VWS V14.00,2013-05-23 17:58:00,
2013-05-23 14:00:00,75.2,65.2,29.77,East,84,1.0,14.0,71,0.00,,---,0.34,1136.00,VWS V14.00,2013-05-23 18:00:00,
2013-05-23 14:03:00,75.4,64.5,29.74,ESE,111,2.0,5.0,69,0.00,,---,0.34,279.00,VWS V14.00,2013-05-23 18:03:00,
2013-05-23 14:08:00,74.9,63.2,29.74,WSW,243,5.0,9.0,67,0.00,,---,0.34,352.00,VWS V14.00,2013-05-23 18:08:00,
2013-05-23 14:13:00,74.8,64.0,29.74,WSW,255,6.0,9.0,69,0.00,,---,0.34,287.00,VWS V14.00,2013-05-23 18:13:00,
2013-05-23 14:18:00,75.3,64.8,29.74,WSW,248,0.0,10.0,70,0.00,,---,0.34,1056.00,VWS V14.00,2013-05-23 18:18:00,
2013-05-23 14:23:00,75.5,63.8,29.74,SE,124,5.0,10.0,67,0.00,,---,0.34,220.00,VWS V14.00,2013-05-23 18:23:00,
2013-05-23 14:28:00,75.2,63.5,29.74,West,270,0.0,10.0,67,0.00,,---,0.34,204.00,VWS V14.00,2013-05-23 18:28:00,
2013-05-23 14:30:00,76.1,65.2,29.75,South,181,3.0,11.0,69,0.00,,---,0.34,1014.00,VWS V14.00,2013-05-23 18:30:00,
2013-05-23 14:33:00,74.8,64.0,29.74,West,268,0.0,5.0,69,0.00,,---,0.34,221.00,VWS V14.00,2013-05-23 18:33:00,
2013-05-23 14:38:00,74.4,62.3,29.74,South,183,2.0,7.0,66,0.00,,---,0.34,151.00,VWS V14.00,2013-05-23 18:38:00,
2013-05-23 14:43:00,74.2,62.5,29.74,WSW,254,3.0,7.0,67,0.00,,---,0.34,32.00,VWS V14.00,2013-05-23 18:43:00,
2013-05-23 14:48:00,72.8,62.9,29.77,WNW,284,8.0,16.0,71,4.76,,---,0.40,19.00,VWS V14.00,2013-05-23 18:48:00,
2013-05-23 14:53:00,68.0,61.6,29.76,WNW,285,8.0,16.0,80,0.37,,---,0.55,40.00,VWS V14.00,2013-05-23 18:53:00,
2013-05-23 14:58:00,65.3,61.0,29.76,WNW,301,6.0,16.0,86,0.66,,---,0.59,37.00,VWS V14.00,2013-05-23 18:58:00,
2013-05-23 15:00:00,75.6,63.5,29.74,SSW,208,3.0,11.0,66,0.00,,---,0.34,243.00,VWS V14.00,2013-05-23 19:00:00,
2013-05-23 15:03:00,63.9,60.6,29.76,WNW,282,6.0,7.0,89,0.12,,---,0.60,72.00,VWS V14.00,2013-05-23 19:03:00,
2013-05-23 15:08:00,63.3,60.6,29.76,NW,306,2.0,7.0,91,0.22,,---,0.62,72.00,VWS V14.00,2013-05-23 19:08:00,
2013-05-23 15:13:00,63.1,60.7,29.76,WNW,287,1.0,7.0,92,0.13,,---,0.63,67.00,VWS V14.00,2013-05-23 19:13:00,
2013-05-23 15:18:00,63.0,61.0,29.76,West,269,0.0,7.0,93,0.08,,---,0.63,54.00,VWS V14.00,2013-05-23 19:18:00,
2013-05-23 15:23:00,63.0,61.2,29.76,West,269,0.0,7.0,94,0.05,,---,0.63,58.00,VWS V14.00,2013-05-23 19:23:00,
2013-05-23 15:28:00,63.1,61.7,29.76,West,269,0.0,7.0,95,0.05,,---,0.64,72.00,VWS V14.00,2013-05-23 19:28:00,
2013-05-23 15:30:00,74.9,62.8,29.74,WSW,242,0.0,10.0,66,0.00,,---,0.34,220.00,VWS V14.00,2013-05-23 19:30:00,
2013-05-23 15:33:00,63.2,61.8,29.76,West,269,0.0,0.0,95,0.05,,---,0.64,95.00,VWS V14.00,2013-05-23 19:33:00,
2013-05-23 15:38:00,63.2,61.8,29.76,West,269,0.0,0.0,95,0.04,,---,0.64,90.00,VWS V14.00,2013-05-23 19:38:00,
2013-05-23 15:43:00,63.3,61.8,29.76,West,269,0.0,0.0,95,0.00,,---,0.64,79.00,VWS V14.00,2013-05-23 19:43:00,
2013-05-23 15:48:00,63.4,62.0,29.76,West,269,0.0,0.0,95,0.00,,---,0.64,76.00,VWS V14.00,2013-05-23 19:48:00,
2013-05-23 15:53:00,63.5,62.3,29.76,West,269,0.0,0.0,96,0.00,,---,0.64,90.00,VWS V14.00,2013-05-23 19:53:00,
2013-05-23 15:58:00,63.6,62.4,29.76,West,269,0.0,0.0,96,0.00,,---,0.64,113.00,VWS V14.00,2013-05-23 19:58:00,
2013-05-23 16:00:00,64.4,60.8,29.77,WNW,290,6.0,16.0,88,0.19,,---,0.60,49.00,VWS V14.00,2013-05-23 20:00:00,
2013-05-23 16:03:00,63.6,62.4,29.76,West,269,0.0,0.0,96,0.00,,---,0.65,121.00,VWS V14.00,2013-05-23 20:03:00,
2013-05-23 16:08:00,63.8,62.6,29.76,West,269,0.0,0.0,96,0.15,,---,0.66,130.00,VWS V14.00,2013-05-23 20:08:00,
2013-05-23 16:13:00,64.0,62.8,29.75,West,269,0.0,0.0,96,0.07,,---,0.66,162.00,VWS V14.00,2013-05-23 20:13:00,
2013-05-23 16:18:00,64.1,62.9,29.75,West,269,0.0,1.0,96,0.04,,---,0.66,213.00,VWS V14.00,2013-05-23 20:18:00,
2013-05-23 16:23:00,64.4,63.5,29.75,West,269,0.0,1.0,97,0.00,,---,0.66,181.00,VWS V14.00,2013-05-23 20:23:00,
2013-05-23 16:28:00,64.7,63.8,29.75,West,269,0.0,1.0,97,0.00,,---,0.66,174.00,VWS V14.00,2013-05-23 20:28:00,
2013-05-23 16:30:00,63.2,61.8,29.75,West,269,0.0,7.0,95,0.05,,---,0.64,83.00,VWS V14.00,2013-05-23 20:30:00,
2013-05-23 16:33:00,64.9,64.0,29.75,West,269,0.0,0.0,97,0.00,,---,0.66,199.00,VWS V14.00,2013-05-23 20:33:00,
2013-05-23 16:39:00,64.8,63.6,29.75,West,269,0.0,0.0,96,0.00,,---,0.66,172.00,VWS V14.00,2013-05-23 20:39:00,
2013-05-23 16:44:00,64.9,63.7,29.75,West,269,0.0,1.0,96,0.00,,---,0.66,160.00,VWS V14.00,2013-05-23 20:44:00,
2013-05-23 16:49:00,65.0,63.8,29.75,West,269,0.0,1.0,96,0.00,,---,0.66,163.00,VWS V14.00,2013-05-23 20:49:00,
2013-05-23 16:54:00,65.1,63.9,29.74,West,268,0.0,1.0,96,0.00,,---,0.66,160.00,VWS V14.00,2013-05-23 20:54:00,
2013-05-23 16:59:00,65.3,64.1,29.75,West,268,0.0,1.0,96,0.00,,---,0.66,91.00,VWS V14.00,2013-05-23 20:59:00,
2013-05-23 17:00:00,63.6,62.4,29.76,West,269,0.0,0.0,96,0.00,,---,0.65,121.00,VWS V14.00,2013-05-23 21:00:00,
2013-05-23 17:04:00,65.4,64.2,29.75,West,268,0.0,1.0,96,0.00,,---,0.66,86.00,VWS V14.00,2013-05-23 21:04:00,
2013-05-23 17:09:00,65.4,64.2,29.75,West,268,0.0,1.0,96,0.00,,---,0.66,97.00,VWS V14.00,2013-05-23 21:09:00,
2013-05-23 17:14:00,65.3,63.8,29.75,West,268,1.0,1.0,95,0.00,,---,0.66,98.00,VWS V14.00,2013-05-23 21:14:00,
2013-05-23 17:19:00,65.2,63.7,29.75,West,268,0.0,1.0,95,0.00,,---,0.66,76.00,VWS V14.00,2013-05-23 21:19:00,
2013-05-23 17:24:00,65.2,63.7,29.75,West,268,0.0,1.0,95,0.00,,---,0.66,77.00,VWS V14.00,2013-05-23 21:24:00,
2013-05-23 17:29:00,65.2,63.7,29.74,West,268,0.0,1.0,95,0.00,,---,0.66,98.00,VWS V14.00,2013-05-23 21:29:00,
2013-05-23 17:30:00,64.8,63.9,29.75,West,269,0.0,1.0,97,0.00,,---,0.66,178.00,VWS V14.00,2013-05-23 21:30:00,
2013-05-23 17:34:00,65.2,63.7,29.75,West,267,0.0,1.0,95,0.00,,---,0.66,146.00,VWS V14.00,2013-05-23 21:34:00,
2013-05-23 17:39:00,65.3,64.1,29.75,West,267,0.0,2.0,96,0.00,,---,0.66,230.00,VWS V14.00,2013-05-23 21:39:00,
2013-05-23 17:44:00,65.4,63.9,29.75,East,100,0.0,5.0,95,0.00,,---,0.66,216.00,VWS V14.00,2013-05-23 21:44:00,
2013-05-23 17:49:00,65.4,63.9,29.75,SE,143,0.0,5.0,95,0.00,,---,0.66,207.00,VWS V14.00,2013-05-23 21:49:00,
2013-05-23 17:54:00,65.5,64.0,29.75,SE,143,0.0,5.0,95,0.00,,---,0.66,160.00,VWS V14.00,2013-05-23 21:54:00,
2013-05-23 17:59:00,65.5,63.7,29.76,SE,143,0.0,5.0,94,0.00,,---,0.66,142.00,VWS V14.00,2013-05-23 21:59:00,
2013-05-23 18:00:00,65.4,64.2,29.75,West,268,0.0,1.0,96,0.00,,---,0.66,86.00,VWS V14.00,2013-05-23 22:00:00,
2013-05-23 18:04:00,65.5,64.0,29.76,SE,144,0.0,0.0,95,0.00,,---,0.66,158.00,VWS V14.00,2013-05-23 22:04:00,
2013-05-23 18:09:00,65.6,63.8,29.76,SE,142,0.0,1.0,94,0.00,,---,0.66,79.00,VWS V14.00,2013-05-23 22:09:00,
2013-05-23 18:14:00,65.4,63.3,29.75,SSE,161,0.0,2.0,93,0.00,,---,0.66,60.00,VWS V14.00,2013-05-23 22:14:00,
2013-05-23 18:19:00,65.3,63.2,29.76,SSE,165,0.0,2.0,93,0.00,,---,0.66,65.00,VWS V14.00,2013-05-23 22:19:00,
2013-05-23 18:24:00,65.1,63.3,29.76,SSE,165,0.0,2.0,94,0.00,,---,0.66,47.00,VWS V14.00,2013-05-23 22:24:00,
2013-05-23 18:29:00,65.0,63.2,29.76,SSE,165,0.0,2.0,94,0.00,,---,0.66,53.00,VWS V14.00,2013-05-23 22:29:00,
2013-05-23 18:30:00,65.2,63.7,29.74,West,268,0.0,1.0,95,0.00,,---,0.66,123.00,VWS V14.00,2013-05-23 22:30:00,
2013-05-23 18:34:00,65.0,63.2,29.76,SSE,165,0.0,0.0,94,0.00,,---,0.66,47.00,VWS V14.00,2013-05-23 22:34:00,
2013-05-23 18:39:00,64.9,63.1,29.77,South,174,0.0,4.0,94,0.00,,---,0.67,49.00,VWS V14.00,2013-05-23 22:39:00,
2013-05-23 18:44:00,64.9,63.4,29.76,South,173,0.0,4.0,95,0.00,,---,0.67,37.00,VWS V14.00,2013-05-23 22:44:00,
2013-05-23 18:49:00,64.8,63.3,29.77,SSW,192,0.0,4.0,95,0.00,,---,0.67,32.00,VWS V14.00,2013-05-23 22:49:00,
2013-05-23 18:54:00,64.7,63.2,29.76,SSW,194,0.0,4.0,95,0.00,,---,0.67,26.00,VWS V14.00,2013-05-23 22:54:00,
2013-05-23 18:59:00,64.8,63.3,29.76,SSW,194,0.0,4.0,95,0.00,,---,0.67,39.00,VWS V14.00,2013-05-23 22:59:00,
2013-05-23 19:00:00,65.5,63.7,29.76,SE,144,0.0,5.0,94,0.00,,---,0.66,139.00,VWS V14.00,2013-05-23 23:00:00,
2013-05-23 19:04:00,64.8,63.3,29.75,SSW,194,0.0,0.0,95,0.00,,---,0.67,81.00,VWS V14.00,2013-05-23 23:04:00,
2013-05-23 19:09:00,64.7,63.2,29.74,SSW,193,0.0,1.0,95,0.00,,---,0.67,60.00,VWS V14.00,2013-05-23 23:09:00,
2013-05-23 19:14:00,64.7,63.2,29.75,SSW,194,1.0,2.0,95,0.00,,---,0.67,53.00,VWS V14.00,2013-05-23 23:14:00,
2013-05-23 19:19:00,64.5,63.0,29.75,SSE,147,0.0,2.0,95,0.00,,---,0.67,62.00,VWS V14.00,2013-05-23 23:19:00,
2013-05-23 19:24:00,64.5,63.0,29.75,SSE,158,1.0,2.0,95,0.00,,---,0.67,93.00,VWS V14.00,2013-05-23 23:24:00,
2013-05-23 19:29:00,64.6,63.1,29.75,SSE,158,0.0,2.0,95,0.00,,---,0.67,118.00,VWS V14.00,2013-05-23 23:29:00,
2013-05-23 19:30:00,65.0,63.2,29.76,SSE,165,0.0,2.0,94,0.00,,---,0.66,54.00,VWS V14.00,2013-05-23 23:30:00,
2013-05-23 19:34:00,64.8,63.3,29.75,SSE,161,0.0,2.0,95,0.00,,---,0.67,111.00,VWS V14.00,2013-05-23 23:34:00,
2013-05-23 19:39:00,64.9,63.1,29.75,SSE,161,0.0,4.0,94,0.00,,---,0.67,132.00,VWS V14.00,2013-05-23 23:39:00,
2013-05-23 19:44:00,65.1,63.3,29.75,SSW,212,0.0,6.0,94,0.00,,---,0.67,127.00,VWS V14.00,2013-05-23 23:44:00,
2013-05-23 19:49:00,65.1,63.0,29.75,SSW,192,2.0,6.0,93,0.00,,---,0.67,86.00,VWS V14.00,2013-05-23 23:49:00,
2013-05-23 19:54:00,65.1,62.7,29.75,SSW,213,0.0,6.0,92,0.00,,---,0.67,62.00,VWS V14.00,2013-05-23 23:54:00,
2013-05-23 19:59:00,65.0,62.6,29.76,SSW,209,0.0,7.0,92,0.00,,---,0.67,39.00,VWS V14.00,2013-05-23 23:59:00,
2013-05-23 20:00:00,64.8,63.3,29.75,SSW,194,0.0,4.0,95,0.00,,---,0.67,62.00,VWS V14.00,2013-05-24 00:00:00,
2013-05-23 20:04:00,64.9,62.5,29.76,SSW,209,0.0,1.0,92,0.00,,---,0.67,16.00,VWS V14.00,2013-05-24 00:04:00,
2013-05-23 20:09:00,64.7,62.3,29.75,WSW,238,0.0,3.0,92,0.00,,---,0.67,11.00,VWS V14.00,2013-05-24 00:09:00,
2013-05-23 20:14:00,64.5,62.1,29.75,WSW,238,0.0,3.0,92,0.00,,---,0.67,11.00,VWS V14.00,2013-05-24 00:14:00,
2013-05-23 20:19:00,64.3,61.9,29.75,WSW,237,0.0,3.0,92,0.00,,---,0.67,9.00,VWS V14.00,2013-05-24 00:19:00,
2013-05-23 20:24:00,64.1,61.7,29.75,West,267,1.0,3.0,92,0.00,,---,0.67,7.00,VWS V14.00,2013-05-24 00:24:00,
2013-05-23 20:29:00,63.8,61.4,29.75,SW,225,0.0,3.0,92,0.00,,---,0.67,7.00,VWS V14.00,2013-05-24 00:29:00,
2013-05-23 20:30:00,64.7,63.2,29.75,SSE,159,0.0,2.0,95,0.00,,---,0.67,121.00,VWS V14.00,2013-05-24 00:30:00,
2013-05-23 20:34:00,63.6,61.5,29.76,WSW,244,0.0,3.0,93,0.00,,---,0.67,0.00,VWS V14.00,2013-05-24 00:34:00,
2013-05-23 20:39:00,63.5,61.4,29.76,WSW,255,1.0,7.0,93,0.00,,---,0.67,0.00,VWS V14.00,2013-05-24 00:39:00,
2013-05-23 20:44:00,63.5,61.4,29.77,WNW,285,5.0,7.0,93,0.00,,---,0.67,0.00,VWS V14.00,2013-05-24 00:44:00,
2013-05-23 20:49:00,63.5,61.4,29.77,WNW,293,1.0,8.0,93,0.47,,---,0.72,0.00,VWS V14.00,2013-05-24 00:49:00,
2013-05-23 20:54:00,63.2,61.5,29.77,West,268,2.0,8.0,94,0.11,,---,0.72,0.00,VWS V14.00,2013-05-24 00:54:00,
2013-05-23 20:59:00,63.1,61.3,29.77,West,274,1.0,8.0,94,0.08,,---,0.73,0.00,VWS V14.00,2013-05-24 00:59:00,
2013-05-23 21:00:00,65.0,62.6,29.76,SSW,209,0.0,7.0,92,0.00,,---,0.67,25.00,VWS V14.00,2013-05-24 01:00:00,
2013-05-23 21:04:00,62.9,61.2,29.77,WNW,301,0.0,2.0,94,0.07,,---,0.73,0.00,VWS V14.00,2013-05-24 01:04:00,
2013-05-23 21:09:00,62.7,61.0,29.77,WNW,295,0.0,2.0,94,0.05,,---,0.73,0.00,VWS V14.00,2013-05-24 01:09:00,
2013-05-23 21:14:00,62.5,61.0,29.77,SW,234,0.0,4.0,95,0.04,,---,0.74,0.00,VWS V14.00,2013-05-24 01:14:00,
2013-05-23 21:19:00,62.4,61.0,29.78,SW,234,0.0,4.0,95,0.04,,---,0.74,0.00,VWS V14.00,2013-05-24 01:19:00,
2013-05-23 21:24:00,62.3,60.8,29.77,SW,234,0.0,4.0,95,0.04,,---,0.74,0.00,VWS V14.00,2013-05-24 01:24:00,
2013-05-23 21:29:00,62.2,61.0,29.78,SW,234,0.0,4.0,96,0.00,,---,0.74,0.00,VWS V14.00,2013-05-24 01:29:00,
2013-05-23 21:30:00,63.7,61.3,29.76,SW,225,0.0,3.0,92,0.00,,---,0.67,5.00,VWS V14.00,2013-05-24 01:30:00,
2013-05-23 21:34:00,62.2,61.0,29.78,SW,234,0.0,0.0,96,0.18,,---,0.76,0.00,VWS V14.00,2013-05-24 01:34:00,
2013-05-23 21:39:00,62.2,61.0,29.78,WSW,244,0.0,1.0,96,0.15,,---,0.77,0.00,VWS V14.00,2013-05-24 01:39:00,
2013-05-23 21:44:00,62.2,61.0,29.78,WSW,246,0.0,1.0,96,0.16,,---,0.78,0.00,VWS V14.00,2013-05-24 01:44:00,
2013-05-23 21:49:00,62.1,61.0,29.78,WSW,246,0.0,1.0,96,0.07,,---,0.78,0.00,VWS V14.00,2013-05-24 01:49:00,
2013-05-23 21:54:00,62.1,61.2,29.78,WSW,246,0.0,1.0,97,0.04,,---,0.78,0.00,VWS V14.00,2013-05-24 01:54:00,
2013-05-23 21:59:00,62.0,61.1,29.78,WSW,246,0.0,1.0,97,0.04,,---,0.79,0.00,VWS V14.00,2013-05-24 01:59:00,
2013-05-23 22:00:00,63.0,61.2,29.77,WNW,301,1.0,8.0,94,0.08,,---,0.73,0.00,VWS V14.00,2013-05-24 02:00:00,
2013-05-23 22:04:00,62.0,61.1,29.78,NW,315,0.0,4.0,97,0.08,,---,0.80,0.00,VWS V14.00,2013-05-24 02:04:00,
2013-05-23 22:09:00,61.8,60.7,29.78,NNW,328,0.0,4.0,96,0.08,,---,0.80,0.00,VWS V14.00,2013-05-24 02:09:00,
2013-05-23 22:14:00,61.7,60.5,29.78,NNW,328,0.0,4.0,96,0.06,,---,0.80,0.00,VWS V14.00,2013-05-24 02:14:00,
2013-05-23 22:19:00,61.5,60.3,29.79,NNW,328,0.0,4.0,96,0.04,,---,0.80,0.00,VWS V14.00,2013-05-24 02:19:00,
2013-05-23 22:24:00,61.3,59.9,29.80,NW,318,0.0,5.0,95,0.00,,---,0.80,0.00,VWS V14.00,2013-05-24 02:24:00,
2013-05-23 22:29:00,61.0,59.6,29.80,NW,311,0.0,5.0,95,0.00,,---,0.80,0.00,VWS V14.00,2013-05-24 02:29:00,
2013-05-23 22:30:00,62.2,61.0,29.78,SW,234,0.0,4.0,96,0.00,,---,0.75,0.00,VWS V14.00,2013-05-24 02:30:00,
2013-05-23 22:34:00,60.9,59.5,29.80,WNW,298,0.0,2.0,95,0.00,,---,0.80,0.00,VWS V14.00,2013-05-24 02:34:00,
2013-05-23 22:39:00,60.8,59.4,29.80,WNW,298,0.0,2.0,95,0.00,,---,0.80,0.00,VWS V14.00,2013-05-24 02:39:00,
2013-05-23 22:44:00,60.7,59.3,29.80,WNW,299,0.0,2.0,95,0.00,,---,0.80,0.00,VWS V14.00,2013-05-24 02:44:00,
2013-05-23 22:49:00,60.6,59.2,29.81,WNW,300,5.0,5.0,95,0.00,,---,0.80,0.00,VWS V14.00,2013-05-24 02:49:00,
2013-05-23 22:54:00,60.6,58.9,29.81,NW,305,0.0,5.0,94,0.00,,---,0.80,0.00,VWS V14.00,2013-05-24 02:54:00,
2013-05-23 22:59:00,60.5,58.8,29.81,NNW,337,0.0,7.0,94,0.00,,---,0.80,0.00,VWS V14.00,2013-05-24 02:59:00,
2013-05-23 23:00:00,62.0,61.1,29.78,WSW,246,0.0,1.0,97,0.04,,---,0.79,0.00,VWS V14.00,2013-05-24 03:00:00,
2013-05-23 23:04:00,60.4,58.7,29.81,WNW,302,0.0,5.0,94,0.00,,---,0.80,0.00,VWS V14.00,2013-05-24 03:04:00,
2013-05-23 23:09:00,60.3,58.6,29.81,West,281,0.0,5.0,94,0.00,,---,0.80,0.00,VWS V14.00,2013-05-24 03:09:00,
2013-05-23 23:14:00,60.2,58.5,29.82,West,281,0.0,5.0,94,0.00,,---,0.80,0.00,VWS V14.00,2013-05-24 03:14:00,
2013-05-23 23:19:00,60.2,58.5,29.82,NW,309,0.0,6.0,94,0.00,,---,0.80,0.00,VWS V14.00,2013-05-24 03:19:00,
2013-05-23 23:24:00,60.0,58.3,29.82,WNW,302,8.0,12.0,94,0.00,,---,0.80,0.00,VWS V14.00,2013-05-24 03:24:00,
2013-05-23 23:29:00,59.5,57.5,29.82,North,349,7.0,12.0,93,0.00,,---,0.80,0.00,VWS V14.00,2013-05-24 03:29:00,
2013-05-23 23:30:00,61.0,59.6,29.80,NW,311,0.0,5.0,95,0.00,,---,0.80,0.00,VWS V14.00,2013-05-24 03:30:00,
2013-05-23 23:34:00,58.5,56.2,29.82,NW,311,7.0,20.0,92,0.00,,---,0.80,0.00,VWS V14.00,2013-05-24 03:34:00,
2013-05-23 23:39:00,57.3,55.0,29.83,WNW,286,4.0,20.0,92,0.00,,---,0.80,0.00,VWS V14.00,2013-05-24 03:39:00,
2013-05-23 23:44:00,56.5,54.5,29.83,WNW,300,7.0,20.0,93,0.00,,---,0.80,0.00,VWS V14.00,2013-05-24 03:44:00,
2013-05-23 23:49:00,55.9,54.2,29.83,NNW,342,9.0,20.0,94,0.00,,---,0.80,0.00,VWS V14.00,2013-05-24 03:49:00,
2013-05-23 23:54:00,55.2,53.5,29.84,WNW,286,6.0,20.0,94,0.00,,---,0.80,0.00,VWS V14.00,2013-05-24 03:54:00,
2013-05-23 23:59:00,54.6,52.9,29.84,NW,306,6.0,20.0,94,0.00,,---,0.80,0.00,VWS V14.00,2013-05-24 03:59:00,